sensor_id;sensor_type;location;lat;lon;timestamp;temperature;humidity
78731;SHT31;68055;51.978;5.658;2023-06-10T00:01:44;25.3;40.5
78731;SHT31;68055;51.978;5.658;2023-06-10T00:04:15;25.2;40.5
78731;SHT31;68055;51.978;5.658;2023-06-10T00:06:45;25.2;40.7
78731;SHT31;68055;51.978;5.658;2023-06-10T00:09:17;25.1;40.7
78731;SHT31;68055;51.978;5.658;2023-06-10T00:11:48;25.1;40.8
78731;SHT31;68055;51.978;5.658;2023-06-10T00:14:19;25.0;40.8
78731;SHT31;68055;51.978;5.658;2023-06-10T00:16:48;25.0;40.9
78731;SHT31;68055;51.978;5.658;2023-06-10T00:19:19;25.0;41.0
78731;SHT31;68055;51.978;5.658;2023-06-10T00:21:53;24.9;41.0
78731;SHT31;68055;51.978;5.658;2023-06-10T00:24:22;24.9;41.2
78731;SHT31;68055;51.978;5.658;2023-06-10T00:26:52;24.8;41.2
78731;SHT31;68055;51.978;5.658;2023-06-10T00:29:22;24.8;41.2
78731;SHT31;68055;51.978;5.658;2023-06-10T00:31:51;24.7;41.3
78731;SHT31;68055;51.978;5.658;2023-06-10T00:34:25;24.7;41.3
78731;SHT31;68055;51.978;5.658;2023-06-10T00:36:54;24.7;41.3
78731;SHT31;68055;51.978;5.658;2023-06-10T00:39:24;24.6;41.1
78731;SHT31;68055;51.978;5.658;2023-06-10T00:41:53;24.6;41.2
78731;SHT31;68055;51.978;5.658;2023-06-10T00:44:23;24.6;41.2
78731;SHT31;68055;51.978;5.658;2023-06-10T00:46:53;24.5;41.1
78731;SHT31;68055;51.978;5.658;2023-06-10T00:49:23;24.5;41.1
78731;SHT31;68055;51.978;5.658;2023-06-10T00:51:54;24.5;41.1
78731;SHT31;68055;51.978;5.658;2023-06-10T00:54:24;24.4;41.1
78731;SHT31;68055;51.978;5.658;2023-06-10T00:56:55;24.4;40.9
78731;SHT31;68055;51.978;5.658;2023-06-10T00:59:25;24.4;40.7
78731;SHT31;68055;51.978;5.658;2023-06-10T01:01:55;24.3;40.8
78731;SHT31;68055;51.978;5.658;2023-06-10T01:04:25;24.3;40.9
78731;SHT31;68055;51.978;5.658;2023-06-10T01:07:04;24.3;40.7
78731;SHT31;68055;51.978;5.658;2023-06-10T01:09:44;24.2;40.8
78731;SHT31;68055;51.978;5.658;2023-06-10T01:12:20;24.2;40.7
78731;SHT31;68055;51.978;5.658;2023-06-10T01:14:56;24.2;40.5
78731;SHT31;68055;51.978;5.658;2023-06-10T01:17:26;24.2;40.6
78731;SHT31;68055;51.978;5.658;2023-06-10T01:19:57;24.1;40.7
78731;SHT31;68055;51.978;5.658;2023-06-10T01:22:27;24.1;40.6
78731;SHT31;68055;51.978;5.658;2023-06-10T01:25:00;24.1;40.6
78731;SHT31;68055;51.978;5.658;2023-06-10T01:27:37;24.1;40.6
78731;SHT31;68055;51.978;5.658;2023-06-10T01:30:12;24.0;40.6
78731;SHT31;68055;51.978;5.658;2023-06-10T01:32:50;24.0;40.6
78731;SHT31;68055;51.978;5.658;2023-06-10T01:35:24;24.1;40.6
78731;SHT31;68055;51.978;5.658;2023-06-10T01:37:58;24.1;40.3
78731;SHT31;68055;51.978;5.658;2023-06-10T01:40:31;24.2;40.0
78731;SHT31;68055;51.978;5.658;2023-06-10T01:43:02;24.3;40.0
78731;SHT31;68055;51.978;5.658;2023-06-10T01:45:33;24.3;39.7
78731;SHT31;68055;51.978;5.658;2023-06-10T01:48:02;24.4;39.5
78731;SHT31;68055;51.978;5.658;2023-06-10T01:50:32;24.4;39.5
78731;SHT31;68055;51.978;5.658;2023-06-10T01:53:03;24.3;39.3
78731;SHT31;68055;51.978;5.658;2023-06-10T01:55:32;24.3;39.4
78731;SHT31;68055;51.978;5.658;2023-06-10T01:58:02;24.2;39.5
78731;SHT31;68055;51.978;5.658;2023-06-10T02:00:33;24.1;39.5
78731;SHT31;68055;51.978;5.658;2023-06-10T02:03:02;24.1;39.6
78731;SHT31;68055;51.978;5.658;2023-06-10T02:05:32;24.0;39.8
78731;SHT31;68055;51.978;5.658;2023-06-10T02:08:02;23.9;39.9
78731;SHT31;68055;51.978;5.658;2023-06-10T02:10:31;23.9;40.0
78731;SHT31;68055;51.978;5.658;2023-06-10T02:13:03;23.8;40.2
78731;SHT31;68055;51.978;5.658;2023-06-10T02:15:33;23.7;40.3
78731;SHT31;68055;51.978;5.658;2023-06-10T02:18:02;23.7;40.3
78731;SHT31;68055;51.978;5.658;2023-06-10T02:20:33;23.6;40.5
78731;SHT31;68055;51.978;5.658;2023-06-10T02:23:02;23.5;40.6
78731;SHT31;68055;51.978;5.658;2023-06-10T02:25:32;23.5;40.6
78731;SHT31;68055;51.978;5.658;2023-06-10T02:28:02;23.4;40.8
78731;SHT31;68055;51.978;5.658;2023-06-10T02:30:33;23.4;41.0
78731;SHT31;68055;51.978;5.658;2023-06-10T02:33:03;23.3;41.2
78731;SHT31;68055;51.978;5.658;2023-06-10T02:35:32;23.3;41.3
78731;SHT31;68055;51.978;5.658;2023-06-10T02:38:02;23.2;41.6
78731;SHT31;68055;51.978;5.658;2023-06-10T02:40:32;23.2;41.7
78731;SHT31;68055;51.978;5.658;2023-06-10T02:43:02;23.1;41.8
78731;SHT31;68055;51.978;5.658;2023-06-10T02:45:31;23.1;42.0
78731;SHT31;68055;51.978;5.658;2023-06-10T02:48:01;23.1;42.1
78731;SHT31;68055;51.978;5.658;2023-06-10T02:50:31;23.0;42.3
78731;SHT31;68055;51.978;5.658;2023-06-10T02:53:00;23.0;42.4
78731;SHT31;68055;51.978;5.658;2023-06-10T02:55:30;23.0;42.5
78731;SHT31;68055;51.978;5.658;2023-06-10T02:57:59;22.9;42.5
78731;SHT31;68055;51.978;5.658;2023-06-10T03:00:30;22.9;42.7
78731;SHT31;68055;51.978;5.658;2023-06-10T03:02:59;22.9;42.7
78731;SHT31;68055;51.978;5.658;2023-06-10T03:05:31;22.8;43.0
78731;SHT31;68055;51.978;5.658;2023-06-10T03:08:01;22.8;43.0
78731;SHT31;68055;51.978;5.658;2023-06-10T03:10:31;22.8;43.1
78731;SHT31;68055;51.978;5.658;2023-06-10T03:13:04;22.7;43.2
78731;SHT31;68055;51.978;5.658;2023-06-10T03:15:35;22.7;43.6
78731;SHT31;68055;51.978;5.658;2023-06-10T03:18:05;22.7;43.9
78731;SHT31;68055;51.978;5.658;2023-06-10T03:20:35;22.6;43.8
78731;SHT31;68055;51.978;5.658;2023-06-10T03:23:09;22.6;43.9
78731;SHT31;68055;51.978;5.658;2023-06-10T03:25:38;22.6;44.0
78731;SHT31;68055;51.978;5.658;2023-06-10T03:28:08;22.5;44.0
78731;SHT31;68055;51.978;5.658;2023-06-10T03:30:37;22.5;44.1
78731;SHT31;68055;51.978;5.658;2023-06-10T03:33:07;22.5;44.1
78731;SHT31;68055;51.978;5.658;2023-06-10T03:35:37;22.5;44.2
78731;SHT31;68055;51.978;5.658;2023-06-10T03:38:07;22.5;44.3
78731;SHT31;68055;51.978;5.658;2023-06-10T03:40:37;22.4;44.3
78731;SHT31;68055;51.978;5.658;2023-06-10T03:43:06;22.4;44.6
78731;SHT31;68055;51.978;5.658;2023-06-10T03:45:36;22.4;44.4
78731;SHT31;68055;51.978;5.658;2023-06-10T03:48:06;22.4;44.8
78731;SHT31;68055;51.978;5.658;2023-06-10T03:50:36;22.3;44.8
78731;SHT31;68055;51.978;5.658;2023-06-10T03:53:06;22.3;45.0
78731;SHT31;68055;51.978;5.658;2023-06-10T03:55:35;22.3;45.1
78731;SHT31;68055;51.978;5.658;2023-06-10T03:58:05;22.3;45.2
78731;SHT31;68055;51.978;5.658;2023-06-10T04:00:35;22.2;45.3
78731;SHT31;68055;51.978;5.658;2023-06-10T04:03:08;22.2;45.3
78731;SHT31;68055;51.978;5.658;2023-06-10T04:05:41;22.2;45.5
78731;SHT31;68055;51.978;5.658;2023-06-10T04:08:11;22.2;45.7
78731;SHT31;68055;51.978;5.658;2023-06-10T04:10:41;22.2;45.7
78731;SHT31;68055;51.978;5.658;2023-06-10T04:13:10;22.2;45.7
78731;SHT31;68055;51.978;5.658;2023-06-10T04:15:44;22.2;45.7
78731;SHT31;68055;51.978;5.658;2023-06-10T04:18:13;22.2;45.8
78731;SHT31;68055;51.978;5.658;2023-06-10T04:20:43;22.2;45.8
78731;SHT31;68055;51.978;5.658;2023-06-10T04:23:14;22.2;45.9
78731;SHT31;68055;51.978;5.658;2023-06-10T04:25:43;22.2;46.2
78731;SHT31;68055;51.978;5.658;2023-06-10T04:28:13;22.2;46.4
78731;SHT31;68055;51.978;5.658;2023-06-10T04:30:42;22.2;46.3
78731;SHT31;68055;51.978;5.658;2023-06-10T04:33:13;22.1;46.2
78731;SHT31;68055;51.978;5.658;2023-06-10T04:35:42;22.1;46.2
78731;SHT31;68055;51.978;5.658;2023-06-10T04:38:14;22.1;46.4
78731;SHT31;68055;51.978;5.658;2023-06-10T04:40:44;22.1;46.8
78731;SHT31;68055;51.978;5.658;2023-06-10T04:43:14;22.1;46.5
78731;SHT31;68055;51.978;5.658;2023-06-10T04:45:43;22.1;46.7
78731;SHT31;68055;51.978;5.658;2023-06-10T04:48:14;22.1;46.7
78731;SHT31;68055;51.978;5.658;2023-06-10T04:50:44;22.1;46.6
78731;SHT31;68055;51.978;5.658;2023-06-10T04:53:14;22.1;46.7
78731;SHT31;68055;51.978;5.658;2023-06-10T04:55:44;22.1;47.4
78731;SHT31;68055;51.978;5.658;2023-06-10T04:58:14;22.1;47.2
78731;SHT31;68055;51.978;5.658;2023-06-10T05:00:43;22.1;47.5
78731;SHT31;68055;51.978;5.658;2023-06-10T05:03:13;22.1;47.7
78731;SHT31;68055;51.978;5.658;2023-06-10T05:05:44;22.1;47.3
78731;SHT31;68055;51.978;5.658;2023-06-10T05:08:14;22.1;47.4
78731;SHT31;68055;51.978;5.658;2023-06-10T05:10:44;22.1;48.1
78731;SHT31;68055;51.978;5.658;2023-06-10T05:13:13;22.1;47.3
78731;SHT31;68055;51.978;5.658;2023-06-10T05:15:43;22.1;47.2
78731;SHT31;68055;51.978;5.658;2023-06-10T05:18:14;22.2;47.2
78731;SHT31;68055;51.978;5.658;2023-06-10T05:20:43;22.2;47.1
78731;SHT31;68055;51.978;5.658;2023-06-10T05:23:14;22.2;48.0
78731;SHT31;68055;51.978;5.658;2023-06-10T05:25:43;22.2;47.6
78731;SHT31;68055;51.978;5.658;2023-06-10T05:28:13;22.3;47.8
78731;SHT31;68055;51.978;5.658;2023-06-10T05:30:43;22.3;48.3
78731;SHT31;68055;51.978;5.658;2023-06-10T05:33:12;22.4;47.8
78731;SHT31;68055;51.978;5.658;2023-06-10T05:35:42;22.4;47.6
78731;SHT31;68055;51.978;5.658;2023-06-10T05:38:12;22.4;47.8
78731;SHT31;68055;51.978;5.658;2023-06-10T05:40:41;22.5;48.0
78731;SHT31;68055;51.978;5.658;2023-06-10T05:43:11;22.5;47.5
78731;SHT31;68055;51.978;5.658;2023-06-10T05:45:40;22.6;48.6
78731;SHT31;68055;51.978;5.658;2023-06-10T05:48:10;22.7;47.6
78731;SHT31;68055;51.978;5.658;2023-06-10T05:50:40;22.7;48.0
78731;SHT31;68055;51.978;5.658;2023-06-10T05:53:12;22.8;47.4
78731;SHT31;68055;51.978;5.658;2023-06-10T05:55:42;23.0;47.2
78731;SHT31;68055;51.978;5.658;2023-06-10T05:58:14;23.1;46.8
78731;SHT31;68055;51.978;5.658;2023-06-10T06:00:43;23.2;48.0
78731;SHT31;68055;51.978;5.658;2023-06-10T06:03:15;23.4;46.4
78731;SHT31;68055;51.978;5.658;2023-06-10T06:05:44;23.5;46.8
78731;SHT31;68055;51.978;5.658;2023-06-10T06:08:14;23.7;46.7
78731;SHT31;68055;51.978;5.658;2023-06-10T06:10:46;23.9;46.1
78731;SHT31;68055;51.978;5.658;2023-06-10T06:13:16;24.1;45.3
78731;SHT31;68055;51.978;5.658;2023-06-10T06:15:45;24.3;45.0
78731;SHT31;68055;51.978;5.658;2023-06-10T06:18:15;24.4;45.7
78731;SHT31;68055;51.978;5.658;2023-06-10T06:20:48;24.6;44.2
78731;SHT31;68055;51.978;5.658;2023-06-10T06:23:17;24.9;44.0
78731;SHT31;68055;51.978;5.658;2023-06-10T06:25:47;25.1;44.3
78731;SHT31;68055;51.978;5.658;2023-06-10T06:28:17;25.3;43.2
78731;SHT31;68055;51.978;5.658;2023-06-10T06:30:48;25.5;43.7
78731;SHT31;68055;51.978;5.658;2023-06-10T06:33:18;25.7;43.2
78731;SHT31;68055;51.978;5.658;2023-06-10T06:35:48;25.9;43.5
78731;SHT31;68055;51.978;5.658;2023-06-10T06:38:17;26.1;41.8
78731;SHT31;68055;51.978;5.658;2023-06-10T06:40:47;26.3;42.8
78731;SHT31;68055;51.978;5.658;2023-06-10T06:43:16;26.5;41.7
78731;SHT31;68055;51.978;5.658;2023-06-10T06:45:46;26.6;42.2
78731;SHT31;68055;51.978;5.658;2023-06-10T06:48:16;26.8;41.3
78731;SHT31;68055;51.978;5.658;2023-06-10T06:50:45;27.0;40.4
78731;SHT31;68055;51.978;5.658;2023-06-10T06:53:15;27.1;41.3
78731;SHT31;68055;51.978;5.658;2023-06-10T06:55:45;27.3;41.2
78731;SHT31;68055;51.978;5.658;2023-06-10T06:58:14;27.5;40.0
78731;SHT31;68055;51.978;5.658;2023-06-10T07:00:44;27.7;39.1
78731;SHT31;68055;51.978;5.658;2023-06-10T07:03:14;27.9;37.8
78731;SHT31;68055;51.978;5.658;2023-06-10T07:05:43;28.0;38.8
78731;SHT31;68055;51.978;5.658;2023-06-10T07:08:13;28.1;39.2
78731;SHT31;68055;51.978;5.658;2023-06-10T07:10:45;28.3;37.6
78731;SHT31;68055;51.978;5.658;2023-06-10T07:13:16;28.5;38.9
78731;SHT31;68055;51.978;5.658;2023-06-10T07:15:46;28.6;37.5
78731;SHT31;68055;51.978;5.658;2023-06-10T07:18:16;28.8;37.2
78731;SHT31;68055;51.978;5.658;2023-06-10T07:20:46;29.0;36.5
78731;SHT31;68055;51.978;5.658;2023-06-10T07:23:16;29.2;36.2
78731;SHT31;68055;51.978;5.658;2023-06-10T07:25:45;29.4;36.8
78731;SHT31;68055;51.978;5.658;2023-06-10T07:28:15;29.7;35.7
78731;SHT31;68055;51.978;5.658;2023-06-10T07:30:44;30.0;35.2
78731;SHT31;68055;51.978;5.658;2023-06-10T07:33:14;30.2;34.6
78731;SHT31;68055;51.978;5.658;2023-06-10T07:35:44;30.5;34.5
78731;SHT31;68055;51.978;5.658;2023-06-10T07:38:13;30.7;34.1
78731;SHT31;68055;51.978;5.658;2023-06-10T07:40:43;30.8;33.2
78731;SHT31;68055;51.978;5.658;2023-06-10T07:43:13;30.9;32.8
78731;SHT31;68055;51.978;5.658;2023-06-10T07:45:42;31.0;32.6
78731;SHT31;68055;51.978;5.658;2023-06-10T07:48:12;31.1;32.8
78731;SHT31;68055;51.978;5.658;2023-06-10T07:50:42;31.2;33.8
78731;SHT31;68055;51.978;5.658;2023-06-10T07:53:12;31.3;33.6
78731;SHT31;68055;51.978;5.658;2023-06-10T07:55:41;31.4;31.8
78731;SHT31;68055;51.978;5.658;2023-06-10T07:58:11;31.5;32.5
78731;SHT31;68055;51.978;5.658;2023-06-10T08:00:40;31.5;32.4
78731;SHT31;68055;51.978;5.658;2023-06-10T08:03:12;31.6;31.8
78731;SHT31;68055;51.978;5.658;2023-06-10T08:05:41;31.7;32.1
78731;SHT31;68055;51.978;5.658;2023-06-10T08:08:12;31.8;31.9
78731;SHT31;68055;51.978;5.658;2023-06-10T08:10:42;31.8;31.2
78731;SHT31;68055;51.978;5.658;2023-06-10T08:13:11;31.9;31.7
78731;SHT31;68055;51.978;5.658;2023-06-10T08:15:41;31.9;31.7
78731;SHT31;68055;51.978;5.658;2023-06-10T08:18:11;32.0;30.5
78731;SHT31;68055;51.978;5.658;2023-06-10T08:20:41;32.0;30.7
78731;SHT31;68055;51.978;5.658;2023-06-10T08:23:10;32.1;30.3
78731;SHT31;68055;51.978;5.658;2023-06-10T08:25:40;32.2;31.5
78731;SHT31;68055;51.978;5.658;2023-06-10T08:28:09;32.2;30.9
78731;SHT31;68055;51.978;5.658;2023-06-10T08:30:41;32.3;30.3
78731;SHT31;68055;51.978;5.658;2023-06-10T08:33:10;32.4;30.5
78731;SHT31;68055;51.978;5.658;2023-06-10T08:35:40;32.5;31.0
78731;SHT31;68055;51.978;5.658;2023-06-10T08:38:09;32.7;31.2
78731;SHT31;68055;51.978;5.658;2023-06-10T08:40:39;32.8;30.7
78731;SHT31;68055;51.978;5.658;2023-06-10T08:43:20;33.0;30.1
78731;SHT31;68055;51.978;5.658;2023-06-10T08:45:53;33.1;30.8
78731;SHT31;68055;51.978;5.658;2023-06-10T08:48:27;33.3;31.0
78731;SHT31;68055;51.978;5.658;2023-06-10T08:50:59;33.4;31.6
78731;SHT31;68055;51.978;5.658;2023-06-10T08:53:32;33.5;31.4
78731;SHT31;68055;51.978;5.658;2023-06-10T08:56:04;33.7;30.2
78731;SHT31;68055;51.978;5.658;2023-06-10T08:58:35;33.8;29.8
78731;SHT31;68055;51.978;5.658;2023-06-10T09:01:09;33.9;30.4
78731;SHT31;68055;51.978;5.658;2023-06-10T09:03:39;34.0;29.8
78731;SHT31;68055;51.978;5.658;2023-06-10T09:06:10;34.0;29.4
78731;SHT31;68055;51.978;5.658;2023-06-10T09:08:42;34.2;29.3
78731;SHT31;68055;51.978;5.658;2023-06-10T09:11:12;34.3;29.2
78731;SHT31;68055;51.978;5.658;2023-06-10T09:13:42;34.4;29.4
78731;SHT31;68055;51.978;5.658;2023-06-10T09:16:12;34.6;28.8
78731;SHT31;68055;51.978;5.658;2023-06-10T09:18:43;34.7;29.0
78731;SHT31;68055;51.978;5.658;2023-06-10T09:21:13;34.8;29.1
78731;SHT31;68055;51.978;5.658;2023-06-10T09:23:43;34.9;28.5
78731;SHT31;68055;51.978;5.658;2023-06-10T09:26:12;35.0;28.8
78731;SHT31;68055;51.978;5.658;2023-06-10T09:28:44;35.1;28.3
78731;SHT31;68055;51.978;5.658;2023-06-10T09:31:14;35.2;27.9
78731;SHT31;68055;51.978;5.658;2023-06-10T09:33:46;35.3;28.0
78731;SHT31;68055;51.978;5.658;2023-06-10T09:36:23;35.4;28.6
78731;SHT31;68055;51.978;5.658;2023-06-10T09:38:56;35.5;29.1
78731;SHT31;68055;51.978;5.658;2023-06-10T09:41:31;35.6;27.6
78731;SHT31;68055;51.978;5.658;2023-06-10T09:44:02;35.8;28.3
78731;SHT31;68055;51.978;5.658;2023-06-10T09:46:38;35.9;28.6
78731;SHT31;68055;51.978;5.658;2023-06-10T09:49:08;36.0;29.8
78731;SHT31;68055;51.978;5.658;2023-06-10T09:51:51;36.2;27.6
78731;SHT31;68055;51.978;5.658;2023-06-10T09:54:22;36.3;26.2
78731;SHT31;68055;51.978;5.658;2023-06-10T09:56:52;36.5;26.2
78731;SHT31;68055;51.978;5.658;2023-06-10T09:59:30;36.6;25.7
78731;SHT31;68055;51.978;5.658;2023-06-10T10:02:04;36.7;26.3
78731;SHT31;68055;51.978;5.658;2023-06-10T10:04:35;36.8;25.7
78731;SHT31;68055;51.978;5.658;2023-06-10T10:07:05;36.9;25.5
78731;SHT31;68055;51.978;5.658;2023-06-10T10:09:37;37.0;25.5
78731;SHT31;68055;51.978;5.658;2023-06-10T10:12:11;37.1;27.0
78731;SHT31;68055;51.978;5.658;2023-06-10T10:14:46;37.2;26.0
78731;SHT31;68055;51.978;5.658;2023-06-10T10:17:17;37.3;25.4
78731;SHT31;68055;51.978;5.658;2023-06-10T10:19:56;37.4;25.4
78731;SHT31;68055;51.978;5.658;2023-06-10T10:22:31;37.5;25.7
78731;SHT31;68055;51.978;5.658;2023-06-10T10:25:10;37.7;25.0
78731;SHT31;68055;51.978;5.658;2023-06-10T10:27:44;37.9;24.2
78731;SHT31;68055;51.978;5.658;2023-06-10T10:30:20;38.0;23.9
78731;SHT31;68055;51.978;5.658;2023-06-10T10:32:57;38.2;23.8
78731;SHT31;68055;51.978;5.658;2023-06-10T10:35:31;38.3;23.3
78731;SHT31;68055;51.978;5.658;2023-06-10T10:38:02;38.4;22.3
78731;SHT31;68055;51.978;5.658;2023-06-10T10:40:33;38.5;23.4
78731;SHT31;68055;51.978;5.658;2023-06-10T10:43:04;38.6;22.8
78731;SHT31;68055;51.978;5.658;2023-06-10T10:45:36;38.6;22.2
78731;SHT31;68055;51.978;5.658;2023-06-10T10:48:08;38.7;21.9
78731;SHT31;68055;51.978;5.658;2023-06-10T10:50:39;38.8;21.8
78731;SHT31;68055;51.978;5.658;2023-06-10T10:53:09;38.9;21.4
78731;SHT31;68055;51.978;5.658;2023-06-10T10:55:39;38.9;21.8
78731;SHT31;68055;51.978;5.658;2023-06-10T10:58:13;39.0;21.6
78731;SHT31;68055;51.978;5.658;2023-06-10T11:00:45;39.0;21.3
78731;SHT31;68055;51.978;5.658;2023-06-10T11:03:16;39.1;20.6
78731;SHT31;68055;51.978;5.658;2023-06-10T11:05:47;39.1;20.8
78731;SHT31;68055;51.978;5.658;2023-06-10T11:08:47;39.2;20.8
78731;SHT31;68055;51.978;5.658;2023-06-10T11:11:24;39.2;19.9
78731;SHT31;68055;51.978;5.658;2023-06-10T11:14:06;39.3;19.9
78731;SHT31;68055;51.978;5.658;2023-06-10T11:16:42;39.3;20.0
78731;SHT31;68055;51.978;5.658;2023-06-10T11:19:33;39.4;19.2
78731;SHT31;68055;51.978;5.658;2023-06-10T11:22:05;39.4;19.6
78731;SHT31;68055;51.978;5.658;2023-06-10T11:24:37;39.5;19.3
78731;SHT31;68055;51.978;5.658;2023-06-10T11:27:17;39.6;19.2
78731;SHT31;68055;51.978;5.658;2023-06-10T11:30:20;39.6;19.1
78731;SHT31;68055;51.978;5.658;2023-06-10T11:32:52;39.7;18.4
78731;SHT31;68055;51.978;5.658;2023-06-10T11:35:23;39.7;19.0
78731;SHT31;68055;51.978;5.658;2023-06-10T11:37:55;39.7;18.3
78731;SHT31;68055;51.978;5.658;2023-06-10T11:40:25;39.7;18.5
78731;SHT31;68055;51.978;5.658;2023-06-10T11:42:58;39.7;18.5
78731;SHT31;68055;51.978;5.658;2023-06-10T11:45:27;39.5;18.8
78731;SHT31;68055;51.978;5.658;2023-06-10T11:47:58;39.3;19.6
78731;SHT31;68055;51.978;5.658;2023-06-10T11:50:33;39.1;19.2
78731;SHT31;68055;51.978;5.658;2023-06-10T11:53:03;38.8;18.9
78731;SHT31;68055;51.978;5.658;2023-06-10T11:55:44;38.6;19.2
78731;SHT31;68055;51.978;5.658;2023-06-10T11:58:16;38.4;19.8
78731;SHT31;68055;51.978;5.658;2023-06-10T12:00:47;38.1;20.5
78731;SHT31;68055;51.978;5.658;2023-06-10T12:03:17;37.9;19.9
78731;SHT31;68055;51.978;5.658;2023-06-10T12:06:00;37.7;20.5
78731;SHT31;68055;51.978;5.658;2023-06-10T12:08:31;37.5;20.4
78731;SHT31;68055;51.978;5.658;2023-06-10T12:11:01;37.3;20.6
78731;SHT31;68055;51.978;5.658;2023-06-10T12:13:31;37.1;20.9
78731;SHT31;68055;51.978;5.658;2023-06-10T12:16:09;36.9;21.0
78731;SHT31;68055;51.978;5.658;2023-06-10T12:18:39;36.8;21.1
78731;SHT31;68055;51.978;5.658;2023-06-10T12:21:17;36.6;21.0
78731;SHT31;68055;51.978;5.658;2023-06-10T12:24:08;36.5;22.2
78731;SHT31;68055;51.978;5.658;2023-06-10T12:26:40;36.3;21.5
78731;SHT31;68055;51.978;5.658;2023-06-10T12:29:19;36.2;21.1
78731;SHT31;68055;51.978;5.658;2023-06-10T12:31:54;36.1;21.8
78731;SHT31;68055;51.978;5.658;2023-06-10T12:34:33;36.0;22.0
78731;SHT31;68055;51.978;5.658;2023-06-10T12:37:04;35.9;22.0
78731;SHT31;68055;51.978;5.658;2023-06-10T12:39:34;35.8;22.2
78731;SHT31;68055;51.978;5.658;2023-06-10T12:42:04;35.8;22.4
78731;SHT31;68055;51.978;5.658;2023-06-10T12:44:39;35.7;21.9
78731;SHT31;68055;51.978;5.658;2023-06-10T12:47:11;35.7;21.9
78731;SHT31;68055;51.978;5.658;2023-06-10T12:49:41;35.6;21.6
78731;SHT31;68055;51.978;5.658;2023-06-10T12:52:11;35.5;22.1
78731;SHT31;68055;51.978;5.658;2023-06-10T12:54:41;35.4;22.5
78731;SHT31;68055;51.978;5.658;2023-06-10T12:57:11;35.4;22.7
78731;SHT31;68055;51.978;5.658;2023-06-10T12:59:40;35.3;22.7
78731;SHT31;68055;51.978;5.658;2023-06-10T13:02:15;35.3;22.1
78731;SHT31;68055;51.978;5.658;2023-06-10T13:04:45;35.2;22.2
78731;SHT31;68055;51.978;5.658;2023-06-10T13:07:15;35.2;22.7
78731;SHT31;68055;51.978;5.658;2023-06-10T13:09:45;35.1;22.9
78731;SHT31;68055;51.978;5.658;2023-06-10T13:12:17;35.1;23.2
78731;SHT31;68055;51.978;5.658;2023-06-10T13:14:48;35.0;23.0
78731;SHT31;68055;51.978;5.658;2023-06-10T13:17:17;35.0;23.0
78731;SHT31;68055;51.978;5.658;2023-06-10T13:19:49;35.0;22.4
78731;SHT31;68055;51.978;5.658;2023-06-10T13:22:19;34.9;22.4
78731;SHT31;68055;51.978;5.658;2023-06-10T13:24:51;34.9;22.8
78731;SHT31;68055;51.978;5.658;2023-06-10T13:27:21;34.8;22.2
78731;SHT31;68055;51.978;5.658;2023-06-10T13:29:50;34.8;22.1
78731;SHT31;68055;51.978;5.658;2023-06-10T13:32:20;34.7;22.8
78731;SHT31;68055;51.978;5.658;2023-06-10T13:34:50;34.7;23.1
78731;SHT31;68055;51.978;5.658;2023-06-10T13:37:20;34.7;23.1
78731;SHT31;68055;51.978;5.658;2023-06-10T13:39:52;34.6;23.0
78731;SHT31;68055;51.978;5.658;2023-06-10T13:42:22;34.5;22.9
78731;SHT31;68055;51.978;5.658;2023-06-10T13:44:53;34.5;23.6
78731;SHT31;68055;51.978;5.658;2023-06-10T13:47:24;34.5;23.1
78731;SHT31;68055;51.978;5.658;2023-06-10T13:49:54;34.5;23.4
78731;SHT31;68055;51.978;5.658;2023-06-10T13:52:23;34.4;23.6
78731;SHT31;68055;51.978;5.658;2023-06-10T13:54:53;34.4;23.5
78731;SHT31;68055;51.978;5.658;2023-06-10T13:57:22;34.4;23.0
78731;SHT31;68055;51.978;5.658;2023-06-10T13:59:52;34.4;22.9
78731;SHT31;68055;51.978;5.658;2023-06-10T14:02:23;34.3;22.5
78731;SHT31;68055;51.978;5.658;2023-06-10T14:04:55;34.3;22.0
78731;SHT31;68055;51.978;5.658;2023-06-10T14:07:27;34.3;22.4
78731;SHT31;68055;51.978;5.658;2023-06-10T14:09:56;34.3;22.6
78731;SHT31;68055;51.978;5.658;2023-06-10T14:12:26;34.2;22.9
78731;SHT31;68055;51.978;5.658;2023-06-10T14:14:56;34.2;22.4
78731;SHT31;68055;51.978;5.658;2023-06-10T14:17:27;34.2;22.4
78731;SHT31;68055;51.978;5.658;2023-06-10T14:19:57;34.1;22.8
78731;SHT31;68055;51.978;5.658;2023-06-10T14:22:26;34.1;22.3
78731;SHT31;68055;51.978;5.658;2023-06-10T14:24:56;34.1;22.4
78731;SHT31;68055;51.978;5.658;2023-06-10T14:27:25;34.0;22.2
78731;SHT31;68055;51.978;5.658;2023-06-10T14:29:55;34.0;22.6
78731;SHT31;68055;51.978;5.658;2023-06-10T14:32:24;34.0;22.2
78731;SHT31;68055;51.978;5.658;2023-06-10T14:34:54;34.0;22.9
78731;SHT31;68055;51.978;5.658;2023-06-10T14:37:24;33.9;22.0
78731;SHT31;68055;51.978;5.658;2023-06-10T14:39:53;33.9;22.0
78731;SHT31;68055;51.978;5.658;2023-06-10T14:42:23;33.9;21.1
78731;SHT31;68055;51.978;5.658;2023-06-10T14:44:53;33.9;22.1
78731;SHT31;68055;51.978;5.658;2023-06-10T14:47:22;33.8;22.8
78731;SHT31;68055;51.978;5.658;2023-06-10T14:49:52;33.8;23.5
78731;SHT31;68055;51.978;5.658;2023-06-10T14:52:22;33.8;23.5
78731;SHT31;68055;51.978;5.658;2023-06-10T14:54:51;33.8;22.7
78731;SHT31;68055;51.978;5.658;2023-06-10T14:57:21;33.7;22.3
78731;SHT31;68055;51.978;5.658;2023-06-10T14:59:51;33.7;22.9
78731;SHT31;68055;51.978;5.658;2023-06-10T15:02:20;33.8;22.7
78731;SHT31;68055;51.978;5.658;2023-06-10T15:04:50;33.8;23.6
78731;SHT31;68055;51.978;5.658;2023-06-10T15:07:19;33.9;23.8
78731;SHT31;68055;51.978;5.658;2023-06-10T15:09:49;33.9;23.4
78731;SHT31;68055;51.978;5.658;2023-06-10T15:12:18;33.9;23.6
78731;SHT31;68055;51.978;5.658;2023-06-10T15:14:50;33.9;23.6
78731;SHT31;68055;51.978;5.658;2023-06-10T15:17:20;33.9;24.3
78731;SHT31;68055;51.978;5.658;2023-06-10T15:19:49;33.9;24.0
78731;SHT31;68055;51.978;5.658;2023-06-10T15:22:19;33.8;23.6
78731;SHT31;68055;51.978;5.658;2023-06-10T15:24:49;33.8;23.1
78731;SHT31;68055;51.978;5.658;2023-06-10T15:27:20;33.8;24.3
78731;SHT31;68055;51.978;5.658;2023-06-10T15:29:50;33.8;23.3
78731;SHT31;68055;51.978;5.658;2023-06-10T15:32:19;33.7;23.2
78731;SHT31;68055;51.978;5.658;2023-06-10T15:34:49;33.7;23.9
78731;SHT31;68055;51.978;5.658;2023-06-10T15:37:20;33.7;23.9
78731;SHT31;68055;51.978;5.658;2023-06-10T15:39:52;33.6;24.2
78731;SHT31;68055;51.978;5.658;2023-06-10T15:42:21;33.6;24.2
78731;SHT31;68055;51.978;5.658;2023-06-10T15:44:51;33.6;24.3
78731;SHT31;68055;51.978;5.658;2023-06-10T15:47:21;33.6;24.3
78731;SHT31;68055;51.978;5.658;2023-06-10T15:49:51;33.5;24.9
78731;SHT31;68055;51.978;5.658;2023-06-10T15:52:20;33.5;24.8
78731;SHT31;68055;51.978;5.658;2023-06-10T15:54:52;33.5;24.6
78731;SHT31;68055;51.978;5.658;2023-06-10T15:57:23;33.5;24.6
78731;SHT31;68055;51.978;5.658;2023-06-10T15:59:53;33.5;24.2
78731;SHT31;68055;51.978;5.658;2023-06-10T16:02:23;33.5;24.4
78731;SHT31;68055;51.978;5.658;2023-06-10T16:04:53;33.5;23.7
78731;SHT31;68055;51.978;5.658;2023-06-10T16:07:22;33.4;24.8
78731;SHT31;68055;51.978;5.658;2023-06-10T16:09:52;33.4;24.4
78731;SHT31;68055;51.978;5.658;2023-06-10T16:12:22;33.4;24.5
78731;SHT31;68055;51.978;5.658;2023-06-10T16:14:52;33.3;24.6
78731;SHT31;68055;51.978;5.658;2023-06-10T16:17:21;33.3;24.7
78731;SHT31;68055;51.978;5.658;2023-06-10T16:19:51;33.3;24.6
78731;SHT31;68055;51.978;5.658;2023-06-10T16:22:20;33.2;25.3
78731;SHT31;68055;51.978;5.658;2023-06-10T16:24:50;33.2;25.0
78731;SHT31;68055;51.978;5.658;2023-06-10T16:27:19;33.2;25.0